Time;durP1;ratioP1;P1;durP2;ratioP2;P2;SDS_P1;SDS_P2;PMS_P1;PMS_P2;Temp;Humidity;BMP_temperature;BMP_pressure;BME280_temperature;BME280_humidity;BME280_pressure;Samples;Min_cycle;Max_cycle;Signal;HPM_P1;HPM_P2
2020/12/26 00:01:12;;;;;;;2.40;1.98;;;1.40;99.90;;;;;;5104469;28;20198;-62
2020/12/26 00:03:39;;;;;;;2.67;1.80;;;1.40;99.90;;;;;;5103969;28;20202;-63
2020/12/26 00:06:06;;;;;;;3.00;1.90;;;1.30;99.90;;;;;;5104063;28;20202;-63
2020/12/26 00:08:34;;;;;;;5.82;2.58;;;1.30;99.90;;;;;;5103875;28;20202;-61
2020/12/26 00:11:02;;;;;;;5.82;4.07;;;1.30;99.90;;;;;;5104361;28;20420;-62
2020/12/26 00:13:28;;;;;;;4.50;2.80;;;1.40;99.90;;;;;;5102950;28;20198;-62
2020/12/26 00:15:55;;;;;;;3.28;2.42;;;1.30;99.90;;;;;;5104101;28;20213;-63
2020/12/26 00:18:21;;;;;;;3.72;1.85;;;1.50;99.90;;;;;;5104912;28;20222;-61
2020/12/26 00:20:49;;;;;;;3.50;2.15;;;1.30;99.90;;;;;;5104406;28;20198;-63
2020/12/26 00:23:15;;;;;;;4.68;2.20;;;1.40;99.90;;;;;;5104567;28;20269;-63
2020/12/26 00:25:42;;;;;;;7.30;2.25;;;1.30;99.90;;;;;;5103746;28;20204;-62
2020/12/26 00:28:09;;;;;;;2.13;1.92;;;1.70;99.90;;;;;;5103912;28;20279;-62
2020/12/26 00:30:36;;;;;;;3.78;2.60;;;1.30;99.90;;;;;;5104034;28;20201;-62
2020/12/26 00:33:03;;;;;;;2.95;1.70;;;1.30;99.90;;;;;;5104373;28;20202;-60
2020/12/26 00:35:29;;;;;;;2.38;1.80;;;1.30;99.90;;;;;;5103803;28;20214;-62
2020/12/26 00:37:56;;;;;;;2.08;1.95;;;1.30;99.90;;;;;;5103702;28;20256;-61
2020/12/26 00:40:22;;;;;;;1.67;1.58;;;1.30;99.90;;;;;;5103786;28;20378;-60
2020/12/26 00:42:49;;;;;;;2.78;1.98;;;1.20;99.90;;;;;;5103256;28;20505;-61
2020/12/26 00:45:15;;;;;;;1.55;1.45;;;1.30;99.90;;;;;;5103317;28;20396;-61
2020/12/26 00:47:43;;;;;;;4.97;3.42;;;1.30;99.90;;;;;;5103186;28;20651;-61
2020/12/26 00:50:10;;;;;;;2.55;2.20;;;1.30;99.90;;;;;;5103351;28;20212;-61
2020/12/26 00:52:36;;;;;;;7.25;2.17;;;1.30;99.90;;;;;;5103117;28;20202;-62
2020/12/26 00:55:03;;;;;;;4.60;2.28;;;1.30;99.90;;;;;;5103487;28;20202;-62
2020/12/26 00:57:30;;;;;;;2.08;1.67;;;1.80;99.90;;;;;;5103373;28;20492;-62
2020/12/26 00:59:56;;;;;;;1.23;1.00;;;1.30;99.90;;;;;;5103845;28;20236;-62
2020/12/26 01:02:23;;;;;;;2.67;2.28;;;1.60;99.90;;;;;;5103553;28;20201;-62
2020/12/26 01:04:49;;;;;;;2.95;2.50;;;1.30;99.90;;;;;;5103577;28;20269;-64
2020/12/26 01:07:16;;;;;;;1.35;1.17;;;1.30;99.90;;;;;;5103084;28;20503;-60
2020/12/26 01:09:43;;;;;;;3.10;1.90;;;1.40;99.90;;;;;;5103745;28;20412;-62
2020/12/26 01:12:09;;;;;;;3.30;1.80;;;1.30;99.90;;;;;;5103118;28;20202;-61
2020/12/26 01:14:36;;;;;;;2.65;1.85;;;1.30;99.90;;;;;;5102871;28;20202;-61
2020/12/26 01:17:03;;;;;;;5.18;2.38;;;1.30;99.90;;;;;;5102939;28;20202;-62
2020/12/26 01:19:29;;;;;;;3.50;1.63;;;1.40;99.90;;;;;;5103314;28;20239;-61
2020/12/26 01:21:56;;;;;;;3.10;2.83;;;1.30;99.90;;;;;;5102969;28;20199;-61
2020/12/26 01:24:23;;;;;;;2.03;1.85;;;1.30;99.90;;;;;;5103335;28;20198;-61
2020/12/26 01:26:50;;;;;;;1.88;1.67;;;1.30;99.90;;;;;;5102861;28;20387;-61
2020/12/26 01:29:17;;;;;;;5.45;2.72;;;1.40;99.90;;;;;;5102961;28;20208;-61
2020/12/26 01:31:49;;;;;;;5.47;2.40;;;1.40;99.90;;;;;;5102760;28;20412;-61
2020/12/26 01:34:16;;;;;;;4.72;2.40;;;1.40;99.90;;;;;;5103189;28;20208;-61
2020/12/26 01:36:42;;;;;;;1.50;1.40;;;1.40;99.90;;;;;;5102808;28;20226;-62
2020/12/26 01:39:09;;;;;;;3.63;2.60;;;1.40;99.90;;;;;;5103567;28;20229;-61
2020/12/26 01:41:35;;;;;;;2.28;1.60;;;1.30;99.90;;;;;;5105110;28;20202;-60
2020/12/26 01:44:03;;;;;;;3.70;1.88;;;1.30;99.90;;;;;;5102631;28;20209;-61
2020/12/26 01:46:31;;;;;;;2.30;1.73;;;1.40;99.90;;;;;;5102504;28;20239;-62
2020/12/26 01:49:01;;;;;;;4.38;1.27;;;1.50;99.90;;;;;;5103045;28;20512;-61
2020/12/26 01:51:30;;;;;;;3.25;2.30;;;1.40;99.90;;;;;;5102302;28;20277;-63
2020/12/26 01:53:59;;;;;;;2.05;1.83;;;1.30;99.90;;;;;;5102900;28;20198;-62
2020/12/26 01:56:26;;;;;;;2.33;1.63;;;1.40;99.90;;;;;;5102875;28;20198;-63
2020/12/26 01:58:53;;;;;;;3.20;2.83;;;1.30;99.90;;;;;;5103040;28;20226;-62
2020/12/26 02:01:34;;;;;;;2.10;2.00;;;1.30;99.90;;;;;;5102966;28;20204;-70
2020/12/26 02:04:02;;;;;;;1.67;1.58;;;1.30;99.90;;;;;;5102825;28;20182;-63
2020/12/26 02:06:38;;;;;;;3.33;2.30;;;1.30;99.90;;;;;;5102257;28;20213;-63
2020/12/26 02:09:06;;;;;;;4.13;2.33;;;1.30;99.90;;;;;;5102455;28;20206;-63
2020/12/26 02:11:33;;;;;;;0.95;0.90;;;1.30;99.90;;;;;;5101984;28;20206;-62
2020/12/26 02:14:00;;;;;;;1.77;1.58;;;1.30;99.90;;;;;;5102562;28;20206;-63
2020/12/26 02:16:26;;;;;;;4.30;2.72;;;1.40;99.90;;;;;;5106030;28;20354;-63
2020/12/26 02:18:54;;;;;;;12.90;2.80;;;1.40;99.90;;;;;;5106048;28;20248;-63
2020/12/26 02:21:26;;;;;;;2.40;2.28;;;1.20;99.90;;;;;;5106505;28;20202;-63
2020/12/26 02:23:52;;;;;;;2.20;2.00;;;1.30;99.90;;;;;;5106141;28;20210;-63
2020/12/26 02:26:29;;;;;;;4.60;1.75;;;1.30;99.90;;;;;;5106272;28;20240;-63
2020/12/26 02:28:56;;;;;;;6.22;1.80;;;1.30;99.90;;;;;;5106019;28;20400;-63
2020/12/26 02:31:23;;;;;;;2.30;1.73;;;1.30;99.90;;;;;;5106221;28;20380;-63
2020/12/26 02:33:50;;;;;;;2.53;2.33;;;1.30;99.90;;;;;;5105591;28;20201;-63
2020/12/26 02:36:17;;;;;;;3.80;2.80;;;1.30;99.90;;;;;;5105818;28;20218;-62
2020/12/26 02:38:44;;;;;;;3.50;2.58;;;1.40;99.90;;;;;;5105860;28;20225;-63
2020/12/26 02:41:12;;;;;;;3.22;2.40;;;1.50;99.90;;;;;;5105934;28;20381;-63
2020/12/26 02:43:39;;;;;;;3.30;2.95;;;1.50;99.90;;;;;;5105415;28;20505;-62
2020/12/26 02:46:06;;;;;;;2.83;2.55;;;1.40;99.90;;;;;;5105778;28;20202;-62
2020/12/26 02:48:33;;;;;;;5.28;2.58;;;1.50;99.90;;;;;;5105342;28;20248;-62
2020/12/26 02:51:00;;;;;;;2.75;2.25;;;1.50;99.90;;;;;;5105669;28;20202;-63
2020/12/26 02:53:27;;;;;;;5.10;3.45;;;1.50;99.90;;;;;;5105632;28;20198;-63
2020/12/26 02:55:53;;;;;;;10.93;2.25;;;1.50;99.90;;;;;;5106013;28;20206;-62
2020/12/26 02:58:20;;;;;;;3.00;2.70;;;1.50;99.90;;;;;;5105287;28;20210;-62
2020/12/26 03:00:49;;;;;;;2.17;2.08;;;1.50;99.90;;;;;;5105337;28;20497;-62
2020/12/26 03:03:16;;;;;;;5.15;2.60;;;1.50;99.90;;;;;;5105561;28;20198;-63
2020/12/26 03:05:43;;;;;;;4.03;2.97;;;1.40;99.90;;;;;;5105384;28;20209;-62
2020/12/26 03:08:10;;;;;;;3.35;3.00;;;1.40;99.90;;;;;;5105198;28;20264;-62
2020/12/26 03:10:37;;;;;;;2.88;2.60;;;1.60;99.90;;;;;;5105677;28;20205;-63
2020/12/26 03:13:03;;;;;;;2.38;2.20;;;1.50;99.90;;;;;;5106135;28;20504;-62
2020/12/26 03:15:30;;;;;;;8.13;3.58;;;1.50;99.90;;;;;;5104868;28;20206;-62
2020/12/26 03:17:57;;;;;;;4.18;3.08;;;1.70;99.90;;;;;;5104913;28;20214;-63
2020/12/26 03:20:23;;;;;;;3.70;3.28;;;1.60;99.90;;;;;;5105224;28;20230;-62
2020/12/26 03:22:50;;;;;;;3.28;3.00;;;1.60;99.90;;;;;;5105120;28;20494;-62
2020/12/26 03:25:17;;;;;;;3.70;3.35;;;1.50;99.90;;;;;;5105695;28;20438;-63
2020/12/26 03:27:44;;;;;;;5.35;4.20;;;1.70;99.90;;;;;;5103045;28;20458;-63
2020/12/26 03:30:10;;;;;;;7.05;4.53;;;1.50;99.90;;;;;;5104778;28;20206;-63
2020/12/26 03:32:37;;;;;;;2.97;2.78;;;1.50;99.90;;;;;;5105270;28;20251;-63
2020/12/26 03:35:05;;;;;;;5.38;4.88;;;1.50;99.90;;;;;;5105121;28;20206;-63
2020/12/26 03:37:34;;;;;;;5.57;5.07;;;1.50;99.90;;;;;;5104605;28;20218;-63
2020/12/26 03:40:02;;;;;;;6.30;4.60;;;1.60;99.90;;;;;;5104953;28;20222;-63
2020/12/26 03:42:28;;;;;;;6.00;4.30;;;1.50;99.90;;;;;;5104762;28;20225;-62
2020/12/26 03:44:55;;;;;;;4.97;3.90;;;1.60;99.90;;;;;;5104526;28;20206;-62
2020/12/26 03:47:21;;;;;;;5.13;3.42;;;1.50;99.90;;;;;;5104839;28;20212;-62
2020/12/26 03:49:49;;;;;;;4.70;4.28;;;1.50;99.90;;;;;;5103140;28;20209;-62
2020/12/26 03:52:15;;;;;;;6.95;4.30;;;1.50;99.90;;;;;;5104431;28;20198;-63
2020/12/26 03:54:42;;;;;;;7.00;4.30;;;1.50;99.90;;;;;;5104096;28;20206;-62
2020/12/26 03:57:08;;;;;;;6.65;4.60;;;1.40;99.90;;;;;;5104480;28;20224;-62
2020/12/26 03:59:36;;;;;;;4.68;3.75;;;1.50;99.90;;;;;;5104152;28;20304;-62
2020/12/26 04:02:02;;;;;;;3.13;2.50;;;1.40;99.90;;;;;;5104278;28;20265;-62
2020/12/26 04:04:29;;;;;;;3.42;3.15;;;1.50;99.90;;;;;;5104131;28;20270;-62
2020/12/26 04:06:56;;;;;;;3.40;2.50;;;1.40;99.90;;;;;;5104165;28;20203;-63
2020/12/26 04:09:22;;;;;;;5.15;4.38;;;1.50;99.90;;;;;;5104199;28;20209;-62
2020/12/26 04:11:49;;;;;;;6.03;5.20;;;1.50;99.90;;;;;;5103952;28;20274;-63
2020/12/26 04:14:15;;;;;;;6.43;3.50;;;1.50;99.90;;;;;;5104996;28;20237;-62
2020/12/26 04:16:42;;;;;;;4.43;3.88;;;1.40;99.90;;;;;;5103868;28;20336;-62
2020/12/26 04:19:09;;;;;;;2.55;2.35;;;1.40;99.90;;;;;;5103917;28;20222;-62
2020/12/26 04:21:51;;;;;;;7.70;6.18;;;1.40;99.90;;;;;;5103832;28;20516;-63
2020/12/26 04:24:18;;;;;;;6.25;3.85;;;1.50;99.90;;;;;;5104188;28;20198;-63
2020/12/26 04:26:45;;;;;;;4.82;4.20;;;1.40;99.90;;;;;;5103469;28;20238;-63
2020/12/26 04:29:13;;;;;;;5.57;3.13;;;1.40;99.90;;;;;;5103807;28;20187;-63
2020/12/26 04:31:39;;;;;;;7.93;3.97;;;1.40;99.90;;;;;;5103444;28;20212;-63
2020/12/26 04:34:06;;;;;;;3.97;3.50;;;1.50;99.90;;;;;;5103581;28;20214;-63
2020/12/26 04:36:33;;;;;;;6.47;5.13;;;1.40;99.90;;;;;;5103370;28;20591;-63
2020/12/26 04:39:00;;;;;;;3.55;3.25;;;1.50;99.90;;;;;;5102686;28;20271;-63
2020/12/26 04:41:26;;;;;;;6.20;3.85;;;1.40;99.90;;;;;;5103778;28;20198;-63
2020/12/26 04:43:56;;;;;;;5.15;3.90;;;1.40;99.90;;;;;;5103480;28;20451;-62
2020/12/26 04:46:27;;;;;;;7.47;4.90;;;1.50;99.90;;;;;;5104096;28;20393;-62
2020/12/26 04:49:03;;;;;;;4.82;4.30;;;1.40;99.90;;;;;;5103345;28;20212;-62
2020/12/26 04:51:37;;;;;;;10.02;4.03;;;1.40;99.90;;;;;;5103836;28;20182;-62
2020/12/26 04:54:22;;;;;;;5.75;4.70;;;1.50;99.90;;;;;;5103584;28;20232;-61
2020/12/26 04:56:56;;;;;;;7.85;3.40;;;1.40;99.90;;;;;;5103046;28;20254;-61
2020/12/26 04:59:23;;;;;;;4.03;3.35;;;1.40;99.90;;;;;;5103412;28;20397;-62
2020/12/26 05:01:51;;;;;;;3.97;3.55;;;1.50;99.90;;;;;;5103793;28;20201;-61
2020/12/26 05:04:18;;;;;;;14.90;4.28;;;2.10;99.90;;;;;;5103246;28;20505;-61
2020/12/26 05:06:50;;;;;;;2.72;2.50;;;1.50;99.90;;;;;;5102875;28;20202;-60
2020/12/26 05:09:18;;;;;;;4.57;2.20;;;1.50;99.90;;;;;;5103220;28;20205;-61
2020/12/26 05:11:56;;;;;;;2.55;2.35;;;1.40;99.90;;;;;;5103193;28;20489;-61
2020/12/26 05:14:24;;;;;;;4.15;2.90;;;1.50;99.90;;;;;;5103311;28;20198;-60
2020/12/26 05:16:51;;;;;;;4.95;3.28;;;1.50;99.90;;;;;;5103135;28;20202;-61
2020/12/26 05:19:19;;;;;;;3.35;2.58;;;1.50;99.90;;;;;;5102692;28;20222;-61
2020/12/26 05:21:54;;;;;;;2.67;1.95;;;1.90;99.90;;;;;;5103114;28;20202;-61
2020/12/26 05:24:20;;;;;;;2.75;2.65;;;1.40;99.90;;;;;;5102767;28;20197;-61
2020/12/26 05:26:50;;;;;;;1.75;1.63;;;1.50;99.90;;;;;;5102781;28;20368;-60
2020/12/26 05:29:23;;;;;;;1.65;1.30;;;1.50;99.90;;;;;;5101758;28;20550;-60
2020/12/26 05:32:03;;;;;;;2.17;1.15;;;1.50;99.90;;;;;;5101443;28;20213;-60
2020/12/26 05:34:45;;;;;;;11.85;2.00;;;1.50;99.90;;;;;;5102677;28;20182;-60
2020/12/26 05:37:14;;;;;;;2.30;2.10;;;1.50;99.90;;;;;;5102805;28;20230;-60
2020/12/26 05:39:41;;;;;;;3.15;1.75;;;1.50;99.90;;;;;;5102674;28;20225;-61
2020/12/26 05:42:08;;;;;;;1.77;1.60;;;1.50;99.90;;;;;;5103988;28;20202;-61
2020/12/26 05:44:37;;;;;;;2.30;2.10;;;1.40;99.90;;;;;;5102752;28;20210;-60
2020/12/26 05:47:05;;;;;;;1.80;1.48;;;1.50;99.90;;;;;;5102825;28;20209;-62
2020/12/26 05:49:35;;;;;;;1.55;1.45;;;1.40;99.90;;;;;;5103469;28;20209;-61
2020/12/26 05:52:09;;;;;;;1.20;1.10;;;2.00;99.90;;;;;;5106643;28;20198;-61
2020/12/26 05:54:37;;;;;;;4.65;2.65;;;1.40;99.90;;;;;;5106485;28;20198;-62
2020/12/26 05:57:14;;;;;;;1.33;1.13;;;1.40;99.90;;;;;;5107120;28;20239;-62
2020/12/26 05:59:49;;;;;;;2.10;1.08;;;1.50;99.90;;;;;;5107026;28;20543;-62
2020/12/26 06:02:36;;;;;;;1.50;1.40;;;1.50;99.90;;;;;;5106945;28;20186;-61
2020/12/26 06:05:05;;;;;;;1.50;1.35;;;1.50;99.90;;;;;;5106988;28;20358;-62
2020/12/26 06:07:36;;;;;;;1.65;1.25;;;1.40;99.90;;;;;;5106643;28;20210;-63
2020/12/26 06:10:07;;;;;;;1.20;1.10;;;1.40;99.90;;;;;;5106389;28;20210;-62
2020/12/26 06:12:34;;;;;;;6.32;1.90;;;1.80;99.90;;;;;;5106854;28;20202;-63
2020/12/26 06:15:02;;;;;;;1.70;1.50;;;1.30;99.90;;;;;;5106210;28;20268;-62
2020/12/26 06:17:34;;;;;;;1.67;1.52;;;1.40;99.90;;;;;;5106638;28;20206;-62
2020/12/26 06:20:02;;;;;;;2.65;2.00;;;1.40;99.90;;;;;;5106412;28;20245;-62
2020/12/26 06:22:49;;;;;;;2.60;2.40;;;1.30;99.90;;;;;;5106559;28;20209;-62
2020/12/26 06:25:17;;;;;;;2.90;2.08;;;1.30;99.90;;;;;;5106121;28;20205;-61
2020/12/26 06:27:50;;;;;;;14.18;2.75;;;1.30;99.90;;;;;;5105631;28;20234;-62
2020/12/26 06:30:18;;;;;;;2.40;1.58;;;1.30;99.90;;;;;;5107230;28;20202;-61
2020/12/26 06:32:46;;;;;;;2.72;1.70;;;1.30;99.90;;;;;;5106550;28;20197;-61
2020/12/26 06:35:13;;;;;;;5.40;1.45;;;1.30;99.90;;;;;;5105812;28;20511;-62
2020/12/26 06:37:41;;;;;;;2.10;1.85;;;1.40;99.90;;;;;;5105919;28;20240;-62
2020/12/26 06:40:26;;;;;;;0.70;0.70;;;1.40;99.90;;;;;;5105719;28;20222;-61
2020/12/26 06:42:52;;;;;;;2.67;1.55;;;1.40;99.90;;;;;;5105714;28;20208;-62
2020/12/26 06:45:33;;;;;;;1.42;1.33;;;1.40;99.90;;;;;;5105710;28;20412;-61
2020/12/26 06:48:00;;;;;;;4.75;3.45;;;1.30;99.90;;;;;;5105496;28;20269;-61
2020/12/26 06:50:29;;;;;;;1.75;1.65;;;1.30;99.90;;;;;;5106085;28;20363;-61
2020/12/26 06:52:56;;;;;;;6.10;1.80;;;1.40;99.90;;;;;;5106552;28;20225;-62
2020/12/26 06:55:42;;;;;;;3.67;1.45;;;1.30;99.90;;;;;;5105477;28;20202;-62
2020/12/26 06:58:41;;;;;;;0.80;0.80;;;1.30;99.90;;;;;;5105366;28;20198;-62
2020/12/26 07:01:23;;;;;;;3.25;1.65;;;1.30;99.90;;;;;;5104870;28;20202;-61
2020/12/26 07:04:12;;;;;;;1.77;1.67;;;1.30;99.90;;;;;;5105553;28;20388;-61
2020/12/26 07:06:41;;;;;;;0.95;0.93;;;1.30;99.90;;;;;;5104232;28;20199;-62
2020/12/26 07:09:09;;;;;;;1.30;1.20;;;1.30;99.90;;;;;;5105597;28;20509;-61
2020/12/26 07:11:44;;;;;;;0.88;0.85;;;1.30;99.90;;;;;;5106913;28;20385;-62
2020/12/26 07:14:33;;;;;;;1.85;0.82;;;1.50;99.90;;;;;;5104007;28;20212;-62
2020/12/26 07:17:06;;;;;;;1.30;1.20;;;1.40;99.90;;;;;;5105016;28;20572;-62
2020/12/26 07:19:39;;;;;;;2.53;1.95;;;1.30;99.90;;;;;;5105012;28;20230;-61
2020/12/26 07:22:11;;;;;;;5.65;0.85;;;1.30;99.90;;;;;;5105275;28;20217;-61
2020/12/26 07:24:40;;;;;;;1.95;1.80;;;1.40;99.90;;;;;;5104887;28;20506;-60
2020/12/26 07:27:17;;;;;;;5.13;2.00;;;1.30;99.90;;;;;;5104649;28;20240;-60
2020/12/26 07:29:49;;;;;;;2.17;1.27;;;1.30;99.90;;;;;;5104724;28;20197;-63
2020/12/26 07:32:35;;;;;;;3.38;1.77;;;1.40;99.90;;;;;;5104720;28;20198;-61
2020/12/26 07:35:02;;;;;;;2.00;1.35;;;1.30;99.90;;;;;;5104501;28;20212;-61
2020/12/26 07:37:29;;;;;;;1.73;1.00;;;1.30;99.90;;;;;;5104567;28;20218;-62
2020/12/26 07:39:56;;;;;;;1.40;1.30;;;1.30;99.90;;;;;;5104423;28;20280;-61
2020/12/26 07:42:23;;;;;;;1.48;1.38;;;1.30;99.90;;;;;;5104038;28;20201;-61
2020/12/26 07:44:50;;;;;;;1.45;1.20;;;1.30;99.90;;;;;;5105103;28;20235;-61
2020/12/26 07:47:16;;;;;;;1.30;1.05;;;1.20;99.90;;;;;;5104580;28;20428;-61
2020/12/26 07:49:58;;;;;;;5.30;2.05;;;1.30;99.90;;;;;;5104369;28;20202;-61
2020/12/26 07:52:25;;;;;;;1.15;1.05;;;1.30;99.90;;;;;;5104498;28;20469;-61
2020/12/26 07:55:00;;;;;;;4.07;1.60;;;1.30;99.90;;;;;;5104428;28;20496;-61
2020/12/26 07:57:27;;;;;;;1.25;1.05;;;1.30;99.90;;;;;;5104197;28;20202;-61
2020/12/26 07:59:55;;;;;;;1.25;1.20;;;1.30;99.90;;;;;;5105134;28;20226;-61
2020/12/26 08:02:21;;;;;;;1.42;1.02;;;1.30;99.90;;;;;;5104977;28;20209;-61
2020/12/26 08:04:49;;;;;;;1.00;0.95;;;1.30;99.90;;;;;;5104250;28;20197;-62
2020/12/26 08:07:17;;;;;;;1.42;1.33;;;1.40;99.90;;;;;;5104334;28;20508;-60
2020/12/26 08:09:54;;;;;;;1.00;0.95;;;1.40;99.90;;;;;;5106507;28;20377;-60
